Time;durP1;ratioP1;P1;durP2;ratioP2;P2;SDS_P1;SDS_P2;PMS_P1;PMS_P2;Temp;Humidity;BMP_temperature;BMP_pressure;BME280_temperature;BME280_humidity;BME280_pressure;Samples;Min_cycle;Max_cycle;Signal;HPM_P1;HPM_P2
2022/08/27 00:01:21;;;;;;;6.13;3.20;;;;;;;17.17;63.07;100513.34;5005307;28;20601;-41
2022/08/27 00:03:48;;;;;;;7.82;3.20;;;;;;;17.15;62.72;100509.00;5006499;28;20049;-37
2022/08/27 00:06:17;;;;;;;8.00;3.65;;;;;;;17.16;63.00;100501.13;5005800;28;20059;-38
2022/08/27 00:08:46;;;;;;;7.70;3.28;;;;;;;17.14;63.22;100497.72;5002304;28;20053;-37
2022/08/27 00:11:14;;;;;;;8.40;3.42;;;;;;;17.12;63.05;100496.88;5008357;28;20046;-42
2022/08/27 00:13:41;;;;;;;7.63;3.30;;;;;;;17.11;63.03;100502.13;5006698;28;20134;-43
2022/08/27 00:16:10;;;;;;;13.10;3.08;;;;;;;17.11;62.75;100491.66;5007234;28;20073;-38
2022/08/27 00:18:39;;;;;;;8.23;3.42;;;;;;;17.10;63.87;100490.81;5007751;28;20125;-40
2022/08/27 00:21:08;;;;;;;8.23;3.58;;;;;;;17.09;63.75;100496.94;5007861;28;20085;-39
2022/08/27 00:23:36;;;;;;;9.63;3.42;;;;;;;17.09;63.89;100496.94;5007789;28;20046;-43
2022/08/27 00:26:06;;;;;;;5.30;3.45;;;;;;;17.08;63.09;100498.72;5006710;28;20057;-40
2022/08/27 00:28:35;;;;;;;8.27;3.40;;;;;;;17.06;64.00;100490.00;5005426;28;20049;-45
2022/08/27 00:31:03;;;;;;;6.65;2.65;;;;;;;17.06;63.46;100497.03;5001768;28;20048;-43
2022/08/27 00:33:31;;;;;;;8.98;3.17;;;;;;;17.07;64.02;100496.13;5003532;28;20125;-43
2022/08/27 00:35:59;;;;;;;9.38;2.97;;;;;;;17.06;63.45;100490.00;5004151;28;20057;-40
2022/08/27 00:38:27;;;;;;;7.03;2.53;;;;;;;17.06;63.86;100486.56;5005212;28;20049;-38
2022/08/27 00:40:54;;;;;;;8.02;2.72;;;;;;;17.06;63.92;100494.41;5001020;28;20049;-42
2022/08/27 00:43:24;;;;;;;7.80;2.78;;;;;;;17.06;64.09;100499.63;5008780;28;20053;-40
2022/08/27 00:45:57;;;;;;;6.63;2.75;;;;;;;17.07;63.55;100498.75;5008415;28;20500;-42
2022/08/27 00:48:28;;;;;;;5.72;2.47;;;;;;;17.05;63.31;100497.88;5006498;28;20052;-39
2022/08/27 00:50:55;;;;;;;8.25;3.25;;;;;;;17.04;63.68;100490.91;5003389;28;20050;-42
2022/08/27 00:53:28;;;;;;;6.45;2.63;;;;;;;17.02;63.20;100496.19;5003568;28;20522;-42
2022/08/27 00:56:00;;;;;;;4.32;2.28;;;;;;;17.01;63.44;100493.59;4988147;28;20132;-40
2022/08/27 00:58:35;;;;;;;13.30;2.90;;;;;;;17.02;63.80;100487.50;5007166;28;20670;-45
2022/08/27 01:01:05;;;;;;;8.27;3.08;;;;;;;17.03;63.54;100497.06;5002820;28;20057;-36
2022/08/27 01:03:32;;;;;;;8.52;2.65;;;;;;;17.03;63.70;100495.31;5001777;28;20050;-41
2022/08/27 01:06:01;;;;;;;7.95;2.33;;;;;;;17.03;63.17;100494.44;5009071;28;20045;-38
2022/08/27 01:08:33;;;;;;;8.38;3.15;;;;;;;17.03;63.75;100495.31;5009019;28;20050;-37
2022/08/27 01:11:00;;;;;;;4.28;2.60;;;;;;;17.03;63.48;100489.19;5007412;28;20045;-38
2022/08/27 01:13:32;;;;;;;6.70;3.13;;;;;;;17.02;63.66;100485.72;4994484;28;20047;-38
2022/08/27 01:16:25;;;;;;;9.60;3.28;;;;;;;17.01;63.38;100488.38;4988478;28;20057;-38
2022/08/27 01:18:54;;;;;;;5.07;2.15;;;;;;;17.01;63.17;100490.97;4989880;28;20046;-41
2022/08/27 01:21:31;;;;;;;8.73;2.58;;;;;;;17.00;63.71;100494.50;4984672;28;20069;-40
2022/08/27 01:24:11;;;;;;;10.77;3.22;;;;;;;16.98;62.94;100481.44;5006751;28;20665;-37
2022/08/27 01:26:38;;;;;;;8.77;2.60;;;;;;;16.99;63.19;100483.16;5002877;28;20061;-39
2022/08/27 01:29:05;;;;;;;5.80;2.38;;;;;;;16.99;63.88;100487.56;5002743;28;20049;-40
2022/08/27 01:31:32;;;;;;;6.90;2.88;;;;;;;16.96;63.42;100489.34;5006672;28;20084;-37
2022/08/27 01:34:02;;;;;;;8.88;3.47;;;;;;;16.96;63.24;100497.19;5004483;28;20538;-40
2022/08/27 01:36:29;;;;;;;8.55;3.15;;;;;;;16.95;63.60;100490.22;5006589;28;20077;-41
2022/08/27 01:38:55;;;;;;;4.32;2.42;;;;;;;16.95;63.43;100487.63;5004505;28;20046;-39
2022/08/27 01:41:23;;;;;;;6.15;2.75;;;;;;;16.94;63.46;100491.13;5002700;28;20544;-41
2022/08/27 01:43:51;;;;;;;7.63;3.15;;;;;;;16.94;63.42;100487.66;5006782;28;20433;-39
2022/08/27 01:46:22;;;;;;;7.80;2.25;;;;;;;16.93;63.17;100486.78;5005666;28;20050;-39
2022/08/27 01:48:49;;;;;;;9.13;2.80;;;;;;;16.90;63.60;100479.03;5008027;28;20045;-40
2022/08/27 01:51:17;;;;;;;5.93;2.60;;;;;;;16.90;62.75;100489.47;5006036;28;20042;-39
2022/08/27 01:53:44;;;;;;;5.32;2.05;;;;;;;16.89;62.98;100482.50;5006633;28;20042;-38
2022/08/27 01:56:11;;;;;;;7.20;2.22;;;;;;;16.86;63.06;100477.38;5005832;28;20049;-44
2022/08/27 01:58:38;;;;;;;7.70;2.95;;;;;;;16.83;63.64;100480.88;5006813;28;20060;-36
2022/08/27 02:01:10;;;;;;;6.00;2.22;;;;;;;16.83;63.35;100480.03;5004729;28;20050;-39
2022/08/27 02:03:39;;;;;;;8.25;2.30;;;;;;;16.80;63.42;100477.50;5005409;28;20072;-43
2022/08/27 02:06:09;;;;;;;6.57;2.42;;;;;;;16.78;63.95;100479.25;5003080;28;20054;-35
2022/08/27 02:08:36;;;;;;;11.50;2.72;;;;;;;16.75;63.28;100472.34;4996685;28;20046;-42
2022/08/27 02:11:03;;;;;;;5.75;3.05;;;;;;;16.74;64.17;100482.84;5004446;28;20038;-38
2022/08/27 02:13:30;;;;;;;6.28;3.33;;;;;;;16.70;64.04;100482.06;5006442;28;20046;-35
2022/08/27 02:15:56;;;;;;;5.85;2.65;;;;;;;16.67;63.92;100483.00;5006382;28;20052;-41
2022/08/27 02:18:23;;;;;;;7.55;2.47;;;;;;;16.65;63.60;100474.31;5002460;28;20050;-39
2022/08/27 02:20:50;;;;;;;5.97;2.97;;;;;;;16.62;63.58;100479.59;5007290;28;20050;-38
2022/08/27 02:23:17;;;;;;;5.40;2.40;;;;;;;16.60;63.93;100476.16;5004857;28;20060;-39
2022/08/27 02:25:46;;;;;;;5.43;2.22;;;;;;;16.57;63.61;100471.00;5006477;28;20045;-37
2022/08/27 02:28:12;;;;;;;5.18;2.78;;;;;;;16.53;63.63;100469.34;5006743;28;20046;-39
2022/08/27 02:30:39;;;;;;;7.70;2.67;;;;;;;16.50;63.75;100472.88;5004023;28;20481;-39
2022/08/27 02:33:06;;;;;;;6.47;2.35;;;;;;;16.48;64.03;100471.19;5009563;28;20133;-45
2022/08/27 02:35:37;;;;;;;7.55;2.70;;;;;;;16.44;63.90;100481.72;5004895;28;20050;-40
2022/08/27 02:38:05;;;;;;;6.93;3.72;;;;;;;16.40;64.14;100474.81;5007627;28;20136;-38
2022/08/27 02:40:32;;;;;;;7.25;2.88;;;;;;;16.37;63.84;100474.88;5006154;28;20034;-42
2022/08/27 02:42:58;;;;;;;6.85;2.97;;;;;;;16.34;64.93;100474.09;5001861;28;20058;-36
2022/08/27 02:45:25;;;;;;;6.70;3.17;;;;;;;16.31;64.27;100480.22;4987323;28;20038;-40
2022/08/27 02:47:52;;;;;;;8.00;3.22;;;;;;;16.30;64.00;100475.91;4988193;28;20058;-40
2022/08/27 02:50:19;;;;;;;10.50;3.22;;;;;;;16.27;64.30;100479.44;4985693;28;20061;-38
2022/08/27 02:52:52;;;;;;;8.15;3.13;;;;;;;16.24;64.44;100474.25;4987112;28;20491;-35
2022/08/27 02:55:19;;;;;;;6.75;3.17;;;;;;;16.25;65.05;100475.13;4988563;28;20046;-37
2022/08/27 02:57:46;;;;;;;6.22;2.38;;;;;;;16.24;64.39;100471.66;4984311;28;20494;-45
2022/08/27 03:00:16;;;;;;;8.38;3.25;;;;;;;16.24;64.79;100471.66;4985045;28;20058;-38
2022/08/27 03:02:43;;;;;;;8.32;3.35;;;;;;;16.23;65.09;100476.91;4984038;28;20055;-38
2022/08/27 03:05:12;;;;;;;8.43;3.40;;;;;;;16.24;65.08;100478.66;4983640;28;20057;-35
2022/08/27 03:07:39;;;;;;;9.75;3.17;;;;;;;16.24;65.15;100478.66;4986059;28;20049;-39
2022/08/27 03:10:08;;;;;;;7.25;3.40;;;;;;;16.23;65.37;100479.50;4983915;28;20057;-38
2022/08/27 03:12:35;;;;;;;7.38;3.47;;;;;;;16.21;65.43;100473.47;4987527;28;20050;-37
2022/08/27 03:15:05;;;;;;;9.88;3.28;;;;;;;16.20;64.97;100467.38;4984690;28;20104;-41
2022/08/27 03:20:18;;;;;;;8.55;3.10;;;;;;;16.17;65.20;100462.19;4986269;28;20054;-39
2022/08/27 03:22:45;;;;;;;5.75;2.75;;;;;;;16.16;64.98;100463.09;4985580;28;20050;-39
2022/08/27 03:25:12;;;;;;;7.10;3.50;;;;;;;16.16;65.24;100466.59;4982547;28;20051;-41
2022/08/27 03:27:39;;;;;;;5.72;3.00;;;;;;;16.16;65.48;100477.03;4981734;28;20047;-38
2022/08/27 03:30:12;;;;;;;9.77;2.90;;;;;;;16.17;65.40;100473.53;4985819;28;20509;-38
2022/08/27 03:32:38;;;;;;;7.32;2.83;;;;;;;16.14;65.26;100473.59;4985691;28;20053;-38
2022/08/27 03:35:05;;;;;;;7.00;3.25;;;;;;;16.15;65.38;100472.69;4984130;28;20051;-43
2022/08/27 03:37:32;;;;;;;7.90;3.00;;;;;;;16.16;65.29;100476.16;4983927;28;20042;-41
2022/08/27 03:39:59;;;;;;;5.68;3.20;;;;;;;16.13;65.13;100471.88;4982482;28;20383;-37
2022/08/27 03:42:26;;;;;;;7.63;2.58;;;;;;;16.13;64.89;100471.00;4984367;28;20076;-39
2022/08/27 03:44:53;;;;;;;8.07;2.80;;;;;;;16.10;65.05;100466.69;4986515;28;20050;-41
2022/08/27 03:47:21;;;;;;;6.38;3.10;;;;;;;16.10;65.13;100469.31;4985986;28;20042;-37
2022/08/27 03:49:48;;;;;;;6.53;2.47;;;;;;;16.09;65.55;100464.09;4985180;28;20058;-43
2022/08/27 03:52:15;;;;;;;8.63;3.15;;;;;;;16.06;65.78;100471.13;4981873;28;20046;-39
2022/08/27 03:54:42;;;;;;;7.20;2.80;;;;;;;16.03;65.58;100465.09;4982267;28;20058;-42
2022/08/27 03:57:09;;;;;;;5.85;2.90;;;;;;;16.01;65.15;100472.09;4986426;28;20054;-36
2022/08/27 03:59:36;;;;;;;6.78;2.55;;;;;;;16.00;65.25;100475.59;4985377;28;20057;-43
2022/08/27 04:02:04;;;;;;;8.68;3.70;;;;;;;15.98;65.03;100477.38;4984561;28;20058;-40
2022/08/27 04:04:31;;;;;;;7.32;3.33;;;;;;;15.94;65.58;100471.31;4982142;28;20485;-43
2022/08/27 04:06:58;;;;;;;7.97;3.00;;;;;;;15.90;65.62;100470.50;4986604;28;20046;-40
2022/08/27 04:09:25;;;;;;;7.30;3.58;;;;;;;15.85;65.35;100471.47;4988321;28;20046;-40
2022/08/27 04:11:52;;;;;;;7.82;3.10;;;;;;;15.81;65.75;100466.31;4974167;28;20041;-37
2022/08/27 04:14:19;;;;;;;6.45;3.47;;;;;;;15.81;65.74;100478.53;4987403;28;20073;-40
2022/08/27 04:16:53;;;;;;;5.53;3.13;;;;;;;15.80;65.54;100475.03;4986004;28;20053;-37
2022/08/27 04:19:19;;;;;;;8.73;3.35;;;;;;;15.80;66.16;100474.16;4990759;28;20046;-41
2022/08/27 04:21:52;;;;;;;8.60;3.97;;;;;;;15.79;65.83;100467.22;4987948;28;20124;-38
2022/08/27 04:24:19;;;;;;;9.68;3.40;;;;;;;15.79;66.34;100468.09;4988837;28;20052;-39
2022/08/27 04:26:46;;;;;;;11.70;3.55;;;;;;;15.79;66.04;100462.00;4985069;28;20069;-38
2022/08/27 04:29:13;;;;;;;6.47;3.22;;;;;;;15.80;65.82;100474.16;4987368;28;20061;-37
2022/08/27 04:31:40;;;;;;;10.93;3.90;;;;;;;15.81;66.20;100475.91;4988334;28;20056;-43
2022/08/27 04:34:07;;;;;;;10.10;3.72;;;;;;;15.83;66.29;100474.13;4989313;28;20089;-37
2022/08/27 04:36:33;;;;;;;8.05;3.00;;;;;;;15.82;66.24;100472.41;4985606;28;20046;-38
2022/08/27 04:39:00;;;;;;;9.18;4.07;;;;;;;15.84;66.53;100465.38;4986854;28;20057;-37
2022/08/27 04:41:27;;;;;;;12.48;3.88;;;;;;;15.84;66.74;100469.75;4988043;28;20045;-36
2022/08/27 04:43:57;;;;;;;11.00;3.65;;;;;;;15.83;66.28;100463.66;4989585;28;20510;-37
2022/08/27 04:46:28;;;;;;;8.18;3.88;;;;;;;15.79;66.59;100462.00;4988896;28;20047;-37
2022/08/27 04:48:57;;;;;;;8.73;3.20;;;;;;;15.78;66.51;100465.50;4990568;28;20058;-42
2022/08/27 04:51:26;;;;;;;8.95;3.63;;;;;;;15.78;66.51;100470.72;4970829;28;20061;-38
2022/08/27 04:53:54;;;;;;;8.48;3.10;;;;;;;15.81;66.46;100470.69;4986053;28;20062;-37
2022/08/27 04:56:22;;;;;;;9.80;3.60;;;;;;;15.84;66.18;100465.38;4986054;28;20057;-41
2022/08/27 04:58:50;;;;;;;6.95;3.30;;;;;;;15.85;66.88;100467.13;4987547;28;20387;-37
2022/08/27 05:01:20;;;;;;;8.70;2.85;;;;;;;15.85;66.42;100469.75;4986765;28;20034;-39
2022/08/27 05:03:47;;;;;;;8.30;3.90;;;;;;;15.84;66.42;100470.59;4986243;28;20055;-38
2022/08/27 05:06:15;;;;;;;8.77;3.47;;;;;;;15.86;66.50;100481.91;4986139;28;20047;-43
2022/08/27 05:08:42;;;;;;;10.30;3.58;;;;;;;15.86;66.62;100479.28;4986206;28;20696;-40
2022/08/27 05:11:12;;;;;;;7.15;3.53;;;;;;;15.88;66.81;100477.50;4983455;28;20050;-45
2022/08/27 05:13:40;;;;;;;6.35;3.47;;;;;;;15.87;66.28;100478.38;4989109;28;20050;-38
2022/08/27 05:16:10;;;;;;;7.22;3.53;;;;;;;15.89;66.98;100476.63;4986147;28;20053;-39
2022/08/27 05:18:38;;;;;;;6.68;3.40;;;;;;;15.90;66.20;100480.94;4986957;28;20053;-40
2022/08/27 05:21:18;;;;;;;6.35;3.08;;;;;;;15.91;66.82;100495.72;4985718;28;20054;-38
2022/08/27 05:23:45;;;;;;;7.15;3.58;;;;;;;15.92;66.86;100494.88;4987663;28;20042;-38
2022/08/27 05:26:12;;;;;;;11.90;4.03;;;;;;;15.93;66.55;100491.34;4985667;28;20513;-41
2022/08/27 05:28:38;;;;;;;9.35;3.63;;;;;;;15.93;66.83;100496.59;4985988;28;20065;-38
2022/08/27 05:31:08;;;;;;;9.43;3.70;;;;;;;15.96;67.12;100495.69;4987131;28;20058;-40
2022/08/27 05:33:37;;;;;;;8.90;4.00;;;;;;;15.97;66.78;100496.56;4987318;28;20046;-38
2022/08/27 05:36:05;;;;;;;9.38;3.45;;;;;;;15.96;66.91;100494.81;4985725;28;20050;-40
2022/08/27 05:38:32;;;;;;;7.88;4.35;;;;;;;15.93;67.33;100496.59;4987168;28;20053;-40
2022/08/27 05:41:03;;;;;;;8.30;4.07;;;;;;;15.94;67.62;100493.06;4984732;28;20074;-41
2022/08/27 05:43:31;;;;;;;10.38;3.25;;;;;;;15.94;67.08;100493.06;4987448;28;20122;-41
2022/08/27 05:45:57;;;;;;;8.82;3.97;;;;;;;15.98;67.05;100503.50;4988641;28;20057;-41
2022/08/27 05:48:24;;;;;;;8.50;3.80;;;;;;;15.99;67.37;100500.00;4985552;28;20074;-38
2022/08/27 05:50:51;;;;;;;7.22;3.63;;;;;;;16.00;67.05;100504.31;4987192;28;20655;-40
2022/08/27 05:53:18;;;;;;;8.98;3.70;;;;;;;16.02;66.97;100503.44;4988110;28;20053;-38
2022/08/27 05:55:44;;;;;;;9.85;3.78;;;;;;;16.05;67.60;100505.97;4981605;28;20049;-38
2022/08/27 06:01:03;;;;;;;8.63;3.33;;;;;;;16.06;67.14;100506.84;4984170;28;20054;-43
2022/08/27 06:01:03;;;;;;;7.63;4.05;;;;;;;16.06;66.74;100507.72;4983147;28;20054;-38
2022/08/27 06:03:36;;;;;;;10.82;3.63;;;;;;;16.07;67.35;100513.78;4985946;28;20058;-36
2022/08/27 06:06:06;;;;;;;8.40;3.83;;;;;;;16.09;67.20;100519.84;4984164;28;20042;-44
2022/08/27 06:08:33;;;;;;;;;;;;;;;15.96;67.09;100520.94;5007069;28;20049;-42
2022/08/27 06:11:01;;;;;;;11.95;3.80;;;;;;;16.12;66.98;100527.63;5005189;28;19925;-38
2022/08/27 06:13:28;;;;;;;8.85;4.13;;;;;;;16.16;67.23;100531.03;5005746;28;20050;-39
2022/08/27 06:16:07;;;;;;;8.48;4.05;;;;;;;16.14;66.88;100528.44;5008950;28;20042;-41
2022/08/27 06:18:37;;;;;;;8.32;4.00;;;;;;;16.17;67.55;100525.78;5003641;28;20049;-36
2022/08/27 06:21:04;;;;;;;10.25;4.50;;;;;;;16.16;67.48;100529.31;5007095;28;20046;-42
2022/08/27 06:23:32;;;;;;;8.07;3.58;;;;;;;16.16;67.53;100525.81;5006143;28;20041;-40
2022/08/27 06:25:59;;;;;;;13.98;3.97;;;;;;;16.16;67.38;100534.53;5000467;28;20050;-40
2022/08/27 06:28:28;;;;;;;7.55;4.05;;;;;;;16.20;67.87;100530.09;5004823;28;20053;-39
2022/08/27 06:31:08;;;;;;;9.88;4.13;;;;;;;16.21;67.37;100526.56;5002212;28;20592;-39
2022/08/27 06:33:36;;;;;;;10.45;3.85;;;;;;;16.24;68.16;100528.31;4998562;28;20038;-40
2022/08/27 06:36:06;;;;;;;11.27;4.72;;;;;;;16.26;68.34;100524.75;5005113;28;20045;-38
2022/08/27 06:38:33;;;;;;;11.52;4.10;;;;;;;16.26;68.42;100530.00;5003720;28;20050;-39
2022/08/27 06:41:04;;;;;;;12.05;4.10;;;;;;;16.27;67.83;100528.22;5003106;28;20064;-39
2022/08/27 06:43:42;;;;;;;9.77;3.75;;;;;;;16.26;67.75;100539.56;5006021;28;20045;-38
2022/08/27 06:46:13;;;;;;;9.50;4.72;;;;;;;16.25;68.45;100537.84;5003005;28;20050;-38
2022/08/27 06:48:40;;;;;;;12.63;4.57;;;;;;;16.24;68.58;100543.97;5000903;28;20092;-41
2022/08/27 06:51:09;;;;;;;8.93;4.60;;;;;;;16.24;68.14;100536.13;5003256;28;20057;-38
2022/08/27 06:53:36;;;;;;;10.15;4.03;;;;;;;16.24;68.16;100546.59;5001058;28;20045;-37
2022/08/27 06:56:04;;;;;;;9.15;3.80;;;;;;;16.24;68.33;100551.81;5003917;28;20720;-38
2022/08/27 06:58:32;;;;;;;9.57;4.43;;;;;;;16.24;68.69;100551.81;4987411;28;20057;-35
2022/08/27 07:00:59;;;;;;;8.23;3.97;;;;;;;16.24;68.65;100551.81;5002588;28;20053;-40
2022/08/27 07:03:26;;;;;;;9.95;4.22;;;;;;;16.25;68.89;100553.53;4993928;28;20051;-41
2022/08/27 07:05:52;;;;;;;10.75;4.57;;;;;;;16.26;68.85;100552.63;4984554;28;20050;-41
2022/08/27 07:08:19;;;;;;;9.13;4.47;;;;;;;16.27;68.90;100554.34;4986518;28;20054;-38
2022/08/27 07:10:46;;;;;;;11.50;5.18;;;;;;;16.28;68.75;100553.50;4986380;28;20430;-41
2022/08/27 07:13:12;;;;;;;9.55;4.30;;;;;;;16.28;69.30;100563.94;4987117;28;20038;-36
2022/08/27 07:15:40;;;;;;;8.93;4.22;;;;;;;16.29;69.18;100558.69;4984587;28;20054;-36
2022/08/27 07:18:07;;;;;;;7.10;3.70;;;;;;;16.32;69.01;100565.59;4985019;28;20058;-38
2022/08/27 07:20:40;;;;;;;11.40;4.88;;;;;;;16.34;68.89;100568.19;4983350;28;20058;-36
2022/08/27 07:23:06;;;;;;;9.10;4.00;;;;;;;16.35;68.98;100568.13;4987049;28;20077;-39
2022/08/27 07:25:40;;;;;;;8.15;4.18;;;;;;;16.35;69.27;100569.91;4988048;28;20042;-37
2022/08/27 07:28:07;;;;;;;11.35;4.00;;;;;;;16.32;69.24;100570.84;4970973;28;20054;-38
2022/08/27 07:30:36;;;;;;;7.63;3.83;;;;;;;16.28;69.17;100563.94;4987167;28;20073;-39
2022/08/27 07:33:03;;;;;;;7.15;3.97;;;;;;;16.25;69.78;100571.84;4986831;28;20046;-38
2022/08/27 07:35:30;;;;;;;10.40;4.35;;;;;;;16.24;69.41;100580.56;4984096;28;20110;-36
2022/08/27 07:37:57;;;;;;;8.00;4.00;;;;;;;16.26;69.63;100591.84;4983350;28;20047;-42
2022/08/27 07:40:24;;;;;;;9.70;4.18;;;;;;;16.28;69.22;100590.09;4981668;28;20596;-38
2022/08/27 07:45:47;;;;;;;7.25;3.75;;;;;;;16.23;69.99;100587.53;4987220;28;20475;-36
2022/08/27 07:48:15;;;;;;;9.70;4.38;;;;;;;16.25;69.42;100590.13;4988705;28;20590;-40
2022/08/27 07:50:42;;;;;;;8.45;4.05;;;;;;;16.25;69.94;100584.91;4988016;28;20050;-41
2022/08/27 07:53:09;;;;;;;7.28;3.88;;;;;;;16.25;69.60;100579.69;4989735;28;20736;-39
2022/08/27 07:55:37;;;;;;;10.00;4.03;;;;;;;16.23;70.35;100591.88;4991788;28;20053;-42
2022/08/27 07:58:05;;;;;;;8.60;4.03;;;;;;;16.24;70.17;100588.41;4989157;28;20108;-41
2022/08/27 08:00:41;;;;;;;12.70;4.47;;;;;;;16.24;70.31;100589.25;4987992;28;20700;-42
2022/08/27 08:03:09;;;;;;;10.68;4.70;;;;;;;16.23;70.47;100594.50;4989649;28;20050;-39
2022/08/27 08:05:42;;;;;;;7.47;3.42;;;;;;;16.18;71.09;100582.38;4987295;28;20042;-38
2022/08/27 08:08:10;;;;;;;10.27;4.40;;;;;;;16.22;70.56;100596.28;4981182;28;20073;-38
2022/08/27 08:10:39;;;;;;;12.00;4.18;;;;;;;16.23;70.80;100584.06;4984724;28;20129;-40
2022/08/27 08:13:06;;;;;;;13.23;4.50;;;;;;;16.26;71.25;100589.22;4987582;28;20406;-38
2022/08/27 08:15:34;;;;;;;11.13;4.53;;;;;;;16.28;70.66;100590.09;4982048;28;20042;-41
2022/08/27 08:18:01;;;;;;;11.80;4.45;;;;;;;16.34;71.17;100595.19;4991351;28;20077;-36
2022/08/27 08:20:29;;;;;;;13.75;4.70;;;;;;;16.42;70.60;100597.66;4990622;28;20053;-36
2022/08/27 08:23:16;;;;;;;19.63;4.72;;;;;;;16.52;71.36;100608.81;4990707;28;20057;-39
2022/08/27 08:25:43;;;;;;;12.57;4.63;;;;;;;16.59;70.88;100599.97;4989270;28;20053;-37
2022/08/27 08:28:10;;;;;;;10.48;4.22;;;;;;;16.66;71.32;100604.19;4987334;28;20050;-43
2022/08/27 08:30:37;;;;;;;11.43;4.28;;;;;;;16.70;70.18;100603.25;4989897;28;20052;-38
2022/08/27 08:33:04;;;;;;;9.10;4.20;;;;;;;16.74;70.95;100601.41;4988648;28;20035;-37
2022/08/27 08:35:31;;;;;;;11.20;4.88;;;;;;;16.79;70.54;100604.78;4989751;28;20382;-38
2022/08/27 08:38:06;;;;;;;9.93;4.40;;;;;;;16.86;70.82;100612.53;4990731;28;20519;-39
2022/08/27 08:40:37;;;;;;;23.65;4.78;;;;;;;16.93;71.30;100612.34;4987909;28;20205;-40
2022/08/27 08:43:12;;;;;;;13.15;4.47;;;;;;;17.02;70.48;100610.47;4988067;28;20058;-44
2022/08/27 08:45:41;;;;;;;10.48;4.10;;;;;;;17.12;70.73;100617.25;4986185;28;20455;-38
2022/08/27 08:53:39;;;;;;;9.82;3.83;;;;;;;17.40;70.90;100624.53;5033984;27;20916;-37
2022/08/27 08:56:11;;;;;;;9.95;3.83;;;;;;;17.52;70.05;100622.50;5023608;28;20053;-41
2022/08/27 08:58:46;;;;;;;12.93;3.63;;;;;;;17.61;70.79;100622.31;5025159;28;20545;-37
2022/08/27 09:01:17;;;;;;;9.80;4.15;;;;;;;17.70;70.53;100627.34;5027386;28;20045;-42
2022/08/27 09:03:52;;;;;;;12.52;4.18;;;;;;;17.80;70.35;100629.75;5022300;28;20054;-37
2022/08/27 09:06:27;;;;;;;9.38;3.78;;;;;;;17.95;70.10;100621.53;5022857;28;20132;-40
2022/08/27 09:08:55;;;;;;;12.32;4.75;;;;;;;18.17;69.77;100635.88;5003936;28;20047;-36
2022/08/27 09:14:06;;;;;;;9.73;5.28;;;;;;;18.83;70.95;100635.91;5097568;27;20895;-43
2022/08/27 09:16:39;;;;;;;11.95;5.88;;;;;;;19.30;69.45;100645.09;5102574;28;20675;-36
2022/08/27 09:19:06;;;;;;;8.32;5.40;;;;;;;19.57;68.65;100641.69;5097154;28;20044;-40
2022/08/27 09:26:56;;;;;;;10.82;4.00;;;;;;;19.86;67.29;100643.38;5023863;27;20417;-38
2022/08/27 09:29:26;;;;;;;9.82;4.40;;;;;;;19.92;67.32;100631.81;5025621;28;20064;-37
2022/08/27 09:31:59;;;;;;;12.57;4.30;;;;;;;20.00;66.83;100635.06;5022143;28;20068;-39
2022/08/27 09:34:34;;;;;;;9.50;4.55;;;;;;;20.12;67.09;100638.22;5023954;28;20053;-42
2022/08/27 09:45:08;;;;;;;12.18;7.43;;;;;;;20.78;66.53;100640.31;5022805;28;20413;-38
2022/08/27 09:47:45;;;;;;;9.00;5.22;;;;;;;20.88;66.12;100637.38;5011174;28;20121;-42
2022/08/27 09:50:16;;;;;;;9.95;4.43;;;;;;;20.98;65.08;100644.06;5008439;28;20049;-42
2022/08/27 09:52:52;;;;;;;8.18;4.25;;;;;;;21.03;65.02;100642.09;5008072;28;20042;-37
2022/08/27 09:55:34;;;;;;;9.05;4.28;;;;;;;21.09;64.77;100637.50;5016851;28;20045;-42
2022/08/27 09:58:04;;;;;;;6.88;3.60;;;;;;;21.17;64.56;100643.34;5015416;28;20044;-39
2022/08/27 10:00:35;;;;;;;;;;;;;;;21.17;63.74;100638.06;5013227;28;20054;-41
2022/08/27 10:03:03;;;;;;;12.85;3.90;;;;;;;21.25;64.07;100630.75;5022132;28;19921;-39
2022/08/27 10:05:35;;;;;;;10.18;4.00;;;;;;;21.34;63.71;100634.78;5020808;28;20042;-43
2022/08/27 10:16:17;;;;;;;8.40;5.13;;;;;;;22.74;61.73;100628.25;5069501;27;20394;-46
2022/08/27 10:24:27;;;;;;;7.72;3.53;;;;;;;23.47;59.53;100624.09;5060246;28;20397;-39
2022/08/27 10:40:19;;;;;;;5.72;3.17;;;;;;;24.45;55.51;100598.09;5049694;27;20734;-40
2022/08/27 10:43:17;;;;;;;6.60;2.40;;;;;;;24.59;55.20;100600.00;5022939;28;20394;-39
2022/08/27 10:48:29;;;;;;;5.05;3.47;;;;;;;25.00;54.23;100600.53;5094642;27;21006;-39
2022/08/27 10:53:42;;;;;;;6.72;2.00;;;;;;;25.39;52.43;100593.94;5018815;27;20391;-39
2022/08/27 11:04:21;;;;;;;4.53;2.67;;;;;;;25.99;49.41;100598.56;5058574;27;20399;-41
2022/08/27 11:09:41;;;;;;;6.55;3.78;;;;;;;26.25;47.59;100596.16;5084718;27;20378;-44
2022/08/27 11:12:14;;;;;;;5.70;3.22;;;;;;;26.25;48.09;100599.66;5044507;28;20068;-39
2022/08/27 11:14:49;;;;;;;12.40;3.65;;;;;;;26.36;48.30;100593.72;5041430;28;20071;-43
2022/08/27 11:17:25;;;;;;;5.25;2.90;;;;;;;26.43;47.71;100594.19;5043710;28;20041;-39
2022/08/27 11:20:37;;;;;;;5.40;3.08;;;;;;;26.41;46.64;100591.63;5039289;28;20048;-43
2022/08/27 11:26:02;;;;;;;6.10;3.20;;;;;;;26.31;43.47;100577.22;5041589;28;20403;-43
2022/08/27 11:42:23;;;;;;;6.22;2.45;;;;;;;26.77;42.78;100573.50;5062398;28;20780;-42
2022/08/27 11:44:56;;;;;;;3.35;2.75;;;;;;;26.77;43.90;100570.00;5018620;27;20061;-44
2022/08/27 11:47:25;;;;;;;8.70;3.17;;;;;;;26.93;44.06;100565.44;5018499;28;20049;-43
2022/08/27 11:49:55;;;;;;;6.13;2.88;;;;;;;27.09;43.98;100569.78;5025861;28;20042;-42
2022/08/27 11:52:30;;;;;;;3.63;1.88;;;;;;;27.23;43.12;100578.66;5018658;28;20571;-40
2022/08/27 12:26:58;;;;;;;3.22;1.25;;;;;;;27.20;40.06;100561.97;5025749;27;20394;-43
2022/08/27 12:35:30;;;;;;;3.40;1.83;;;;;;;27.12;41.02;100558.09;5032447;27;20407;-43
2022/08/27 12:38:18;;;;;;;3.63;2.40;;;;;;;27.05;41.00;100562.97;5005174;28;20121;-44
2022/08/27 12:43:27;;;;;;;4.45;1.02;;;;;;;26.79;40.29;100566.31;5087771;27;20394;-43
2022/08/27 12:48:45;;;;;;;4.30;1.25;;;;;;;26.40;40.56;100566.03;5046846;27;20891;-42
2022/08/27 12:53:58;;;;;;;6.43;2.58;;;;;;;26.29;41.51;100560.53;5043148;28;21047;-39
2022/08/27 13:02:01;;;;;;;2.90;1.60;;;;;;;26.43;40.73;100557.88;5036933;27;20968;-41
2022/08/27 13:04:32;;;;;;;3.17;1.05;;;;;;;26.43;40.81;100551.72;5017386;28;20354;-42
2022/08/27 13:06:59;;;;;;;3.30;1.15;;;;;;;26.38;41.32;100559.94;5004054;28;20686;-41
2022/08/27 13:09:30;;;;;;;4.53;1.55;;;;;;;26.32;40.51;100563.00;5017167;28;20057;-41
2022/08/27 13:11:58;;;;;;;3.22;1.05;;;;;;;26.22;40.65;100549.41;5018480;28;20486;-40
2022/08/27 13:14:27;;;;;;;4.43;1.85;;;;;;;26.15;40.95;100558.69;5015710;28;20524;-42
2022/08/27 13:16:56;;;;;;;;;;;;;;;25.95;40.46;100551.91;5015046;28;20062;-39
2022/08/27 13:22:02;;;;;;;5.78;1.48;;;;;;;26.12;40.75;100548.25;5092732;27;20383;-40
2022/08/27 13:24:34;;;;;;;3.63;1.30;;;;;;;26.12;40.86;100548.25;5035729;28;20049;-41
2022/08/27 13:27:04;;;;;;;1.73;0.93;;;;;;;26.10;40.70;100543.03;5036197;28;20072;-41
2022/08/27 13:29:31;;;;;;;2.78;1.13;;;;;;;26.15;40.99;100543.63;5033163;28;20524;-39
2022/08/27 13:31:59;;;;;;;2.53;1.13;;;;;;;26.28;41.29;100542.91;5031565;28;20054;-43
2022/08/27 13:34:31;;;;;;;4.78;0.90;;;;;;;26.33;41.11;100540.81;5026235;28;20053;-43
2022/08/27 13:37:04;;;;;;;3.15;1.40;;;;;;;26.36;40.55;100534.44;5035265;28;20056;-40
2022/08/27 13:39:36;;;;;;;3.38;0.80;;;;;;;26.38;41.20;100538.72;5027551;28;20045;-48
2022/08/27 13:42:06;;;;;;;2.83;1.02;;;;;;;26.43;40.25;100539.31;5023380;28;20044;-38
2022/08/27 13:44:37;;;;;;;2.22;1.10;;;;;;;26.55;40.00;100535.00;5034811;28;20484;-43
2022/08/27 13:47:13;;;;;;;4.60;1.45;;;;;;;26.62;40.46;100527.53;5039589;28;20041;-37
2022/08/27 13:49:39;;;;;;;1.73;0.82;;;;;;;26.71;40.63;100530.56;5037806;28;20048;-39
2022/08/27 13:55:06;;;;;;;2.60;1.30;;;;;;;26.62;40.04;100538.16;5049488;27;20383;-43
2022/08/27 13:57:45;;;;;;;2.53;1.52;;;;;;;26.44;39.82;100526.84;4994559;28;20069;-44
2022/08/27 14:00:25;;;;;;;4.22;1.25;;;;;;;26.35;39.89;100528.31;4998705;28;20125;-41